sensor_id;sensor_type;location;lat;lon;timestamp;P1;durP1;ratioP1;P2;durP2;ratioP2
15110;SDS011;7656;51.954;7.998;2023-07-13T00:02:26;2.63;;;2.43;;
15110;SDS011;7656;51.954;7.998;2023-07-13T00:06:48;2.83;;;2.20;;
15110;SDS011;7656;51.954;7.998;2023-07-13T00:11:10;2.27;;;1.90;;
15110;SDS011;7656;51.954;7.998;2023-07-13T00:15:31;4.40;;;1.90;;
15110;SDS011;7656;51.954;7.998;2023-07-13T00:19:53;2.20;;;2.00;;
15110;SDS011;7656;51.954;7.998;2023-07-13T00:24:16;2.43;;;2.23;;
15110;SDS011;7656;51.954;7.998;2023-07-13T00:28:43;4.63;;;2.40;;
15110;SDS011;7656;51.954;7.998;2023-07-13T00:33:05;3.53;;;2.40;;
15110;SDS011;7656;51.954;7.998;2023-07-13T00:37:26;3.80;;;2.10;;
15110;SDS011;7656;51.954;7.998;2023-07-13T00:41:47;3.80;;;2.50;;
15110;SDS011;7656;51.954;7.998;2023-07-13T00:46:11;3.50;;;2.23;;
15110;SDS011;7656;51.954;7.998;2023-07-13T00:50:46;4.40;;;1.90;;
15110;SDS011;7656;51.954;7.998;2023-07-13T00:55:12;3.77;;;2.37;;
15110;SDS011;7656;51.954;7.998;2023-07-13T00:59:34;2.30;;;2.10;;
15110;SDS011;7656;51.954;7.998;2023-07-13T01:03:57;4.60;;;2.07;;
15110;SDS011;7656;51.954;7.998;2023-07-13T01:08:20;2.73;;;2.30;;
15110;SDS011;7656;51.954;7.998;2023-07-13T01:12:42;3.37;;;2.23;;
15110;SDS011;7656;51.954;7.998;2023-07-13T01:17:03;3.80;;;2.63;;
15110;SDS011;7656;51.954;7.998;2023-07-13T01:21:25;2.47;;;2.00;;
15110;SDS011;7656;51.954;7.998;2023-07-13T01:25:48;2.60;;;2.20;;
15110;SDS011;7656;51.954;7.998;2023-07-13T01:30:10;3.23;;;1.97;;
15110;SDS011;7656;51.954;7.998;2023-07-13T01:34:31;4.73;;;2.20;;
15110;SDS011;7656;51.954;7.998;2023-07-13T01:38:52;2.47;;;2.10;;
15110;SDS011;7656;51.954;7.998;2023-07-13T01:43:13;2.27;;;1.70;;
15110;SDS011;7656;51.954;7.998;2023-07-13T01:47:35;4.37;;;2.17;;
15110;SDS011;7656;51.954;7.998;2023-07-13T01:51:56;3.17;;;2.07;;
15110;SDS011;7656;51.954;7.998;2023-07-13T01:56:17;4.17;;;2.43;;
15110;SDS011;7656;51.954;7.998;2023-07-13T02:00:40;3.37;;;2.43;;
15110;SDS011;7656;51.954;7.998;2023-07-13T02:05:01;4.50;;;2.50;;
15110;SDS011;7656;51.954;7.998;2023-07-13T02:09:22;6.70;;;3.20;;
15110;SDS011;7656;51.954;7.998;2023-07-13T02:13:43;4.70;;;2.60;;
15110;SDS011;7656;51.954;7.998;2023-07-13T02:18:04;4.73;;;2.83;;
15110;SDS011;7656;51.954;7.998;2023-07-13T02:22:25;4.27;;;2.93;;
15110;SDS011;7656;51.954;7.998;2023-07-13T02:26:46;4.87;;;2.80;;
15110;SDS011;7656;51.954;7.998;2023-07-13T02:31:09;3.03;;;2.73;;
15110;SDS011;7656;51.954;7.998;2023-07-13T02:35:33;2.83;;;2.43;;
15110;SDS011;7656;51.954;7.998;2023-07-13T02:39:54;3.93;;;2.97;;
15110;SDS011;7656;51.954;7.998;2023-07-13T02:44:17;6.37;;;3.20;;
15110;SDS011;7656;51.954;7.998;2023-07-13T02:48:38;4.00;;;2.57;;
15110;SDS011;7656;51.954;7.998;2023-07-13T02:53:00;4.53;;;2.57;;
15110;SDS011;7656;51.954;7.998;2023-07-13T02:57:21;6.30;;;3.40;;
15110;SDS011;7656;51.954;7.998;2023-07-13T03:01:42;6.70;;;3.10;;
15110;SDS011;7656;51.954;7.998;2023-07-13T03:06:03;6.27;;;3.17;;
15110;SDS011;7656;51.954;7.998;2023-07-13T03:10:33;5.97;;;2.80;;
15110;SDS011;7656;51.954;7.998;2023-07-13T03:14:55;5.13;;;3.00;;
15110;SDS011;7656;51.954;7.998;2023-07-13T03:19:18;4.43;;;3.00;;
15110;SDS011;7656;51.954;7.998;2023-07-13T03:23:44;3.93;;;2.77;;
15110;SDS011;7656;51.954;7.998;2023-07-13T03:28:05;4.47;;;3.10;;
15110;SDS011;7656;51.954;7.998;2023-07-13T03:32:27;5.80;;;2.70;;
15110;SDS011;7656;51.954;7.998;2023-07-13T03:36:48;3.33;;;2.90;;
15110;SDS011;7656;51.954;7.998;2023-07-13T03:41:10;6.57;;;3.10;;
15110;SDS011;7656;51.954;7.998;2023-07-13T03:45:31;4.03;;;2.80;;
15110;SDS011;7656;51.954;7.998;2023-07-13T03:49:52;3.97;;;2.30;;
15110;SDS011;7656;51.954;7.998;2023-07-13T03:54:14;6.17;;;2.43;;
15110;SDS011;7656;51.954;7.998;2023-07-13T03:58:38;6.17;;;3.00;;
15110;SDS011;7656;51.954;7.998;2023-07-13T04:03:19;5.33;;;2.57;;
15110;SDS011;7656;51.954;7.998;2023-07-13T04:07:40;5.00;;;1.93;;
15110;SDS011;7656;51.954;7.998;2023-07-13T04:12:01;3.20;;;2.10;;
15110;SDS011;7656;51.954;7.998;2023-07-13T04:16:23;4.90;;;2.30;;
15110;SDS011;7656;51.954;7.998;2023-07-13T04:20:48;5.77;;;2.23;;
15110;SDS011;7656;51.954;7.998;2023-07-13T04:25:10;2.30;;;1.90;;
15110;SDS011;7656;51.954;7.998;2023-07-13T04:29:31;3.70;;;2.00;;
15110;SDS011;7656;51.954;7.998;2023-07-13T04:33:52;2.67;;;1.67;;
15110;SDS011;7656;51.954;7.998;2023-07-13T04:38:14;3.27;;;2.10;;
15110;SDS011;7656;51.954;7.998;2023-07-13T04:42:36;7.43;;;1.90;;
15110;SDS011;7656;51.954;7.998;2023-07-13T04:46:57;5.23;;;1.90;;
15110;SDS011;7656;51.954;7.998;2023-07-13T04:51:18;3.20;;;1.60;;
15110;SDS011;7656;51.954;7.998;2023-07-13T04:55:39;2.60;;;1.77;;
15110;SDS011;7656;51.954;7.998;2023-07-13T05:00:01;6.20;;;1.73;;
15110;SDS011;7656;51.954;7.998;2023-07-13T05:04:25;4.93;;;1.87;;
15110;SDS011;7656;51.954;7.998;2023-07-13T05:08:46;3.33;;;1.97;;
15110;SDS011;7656;51.954;7.998;2023-07-13T05:13:07;2.73;;;1.87;;
15110;SDS011;7656;51.954;7.998;2023-07-13T05:17:28;3.77;;;2.00;;
15110;SDS011;7656;51.954;7.998;2023-07-13T05:21:49;5.00;;;1.83;;
15110;SDS011;7656;51.954;7.998;2023-07-13T05:26:11;3.63;;;1.40;;
15110;SDS011;7656;51.954;7.998;2023-07-13T05:30:32;2.33;;;1.67;;
15110;SDS011;7656;51.954;7.998;2023-07-13T05:34:54;2.60;;;1.63;;
15110;SDS011;7656;51.954;7.998;2023-07-13T05:39:15;7.37;;;1.77;;
15110;SDS011;7656;51.954;7.998;2023-07-13T05:43:37;2.77;;;1.57;;
15110;SDS011;7656;51.954;7.998;2023-07-13T05:47:58;2.40;;;1.63;;
15110;SDS011;7656;51.954;7.998;2023-07-13T05:52:19;2.73;;;1.90;;
15110;SDS011;7656;51.954;7.998;2023-07-13T05:56:40;6.33;;;1.87;;
15110;SDS011;7656;51.954;7.998;2023-07-13T06:01:05;5.77;;;1.97;;
15110;SDS011;7656;51.954;7.998;2023-07-13T06:05:30;6.43;;;2.30;;
15110;SDS011;7656;51.954;7.998;2023-07-13T06:09:51;5.93;;;2.20;;
15110;SDS011;7656;51.954;7.998;2023-07-13T06:14:12;4.77;;;2.27;;
15110;SDS011;7656;51.954;7.998;2023-07-13T06:18:34;4.80;;;2.00;;
15110;SDS011;7656;51.954;7.998;2023-07-13T06:22:56;3.33;;;2.00;;
15110;SDS011;7656;51.954;7.998;2023-07-13T06:27:17;4.93;;;2.53;;
15110;SDS011;7656;51.954;7.998;2023-07-13T06:31:38;5.20;;;2.47;;
15110;SDS011;7656;51.954;7.998;2023-07-13T06:35:59;4.17;;;2.27;;
15110;SDS011;7656;51.954;7.998;2023-07-13T06:40:22;5.03;;;2.60;;
15110;SDS011;7656;51.954;7.998;2023-07-13T06:44:43;4.38;;;2.30;;
15110;SDS011;7656;51.954;7.998;2023-07-13T06:49:05;5.18;;;2.90;;
15110;SDS011;7656;51.954;7.998;2023-07-13T06:53:27;4.55;;;2.33;;
15110;SDS011;7656;51.954;7.998;2023-07-13T06:57:49;3.13;;;2.38;;
15110;SDS011;7656;51.954;7.998;2023-07-13T07:02:10;6.65;;;2.10;;
15110;SDS011;7656;51.954;7.998;2023-07-13T07:06:32;6.47;;;2.42;;
15110;SDS011;7656;51.954;7.998;2023-07-13T07:10:53;4.93;;;2.55;;
15110;SDS011;7656;51.954;7.998;2023-07-13T07:15:15;5.38;;;2.20;;
15110;SDS011;7656;51.954;7.998;2023-07-13T07:19:38;4.60;;;2.17;;
15110;SDS011;7656;51.954;7.998;2023-07-13T07:24:01;4.60;;;2.45;;
15110;SDS011;7656;51.954;7.998;2023-07-13T07:28:24;4.55;;;2.20;;
15110;SDS011;7656;51.954;7.998;2023-07-13T07:32:45;3.78;;;2.10;;
15110;SDS011;7656;51.954;7.998;2023-07-13T07:37:09;5.60;;;2.10;;
15110;SDS011;7656;51.954;7.998;2023-07-13T07:41:33;5.90;;;2.75;;
15110;SDS011;7656;51.954;7.998;2023-07-13T07:45:54;3.95;;;2.30;;
15110;SDS011;7656;51.954;7.998;2023-07-13T07:50:15;4.50;;;2.65;;
15110;SDS011;7656;51.954;7.998;2023-07-13T07:54:37;5.03;;;2.67;;
15110;SDS011;7656;51.954;7.998;2023-07-13T07:58:59;3.35;;;2.38;;
15110;SDS011;7656;51.954;7.998;2023-07-13T08:03:20;6.80;;;2.42;;
15110;SDS011;7656;51.954;7.998;2023-07-13T08:07:41;3.05;;;2.55;;
15110;SDS011;7656;51.954;7.998;2023-07-13T08:12:02;5.53;;;2.67;;
15110;SDS011;7656;51.954;7.998;2023-07-13T08:16:23;6.28;;;2.28;;
15110;SDS011;7656;51.954;7.998;2023-07-13T08:20:45;3.75;;;2.35;;
15110;SDS011;7656;51.954;7.998;2023-07-13T08:25:06;3.22;;;2.42;;
15110;SDS011;7656;51.954;7.998;2023-07-13T08:29:28;3.08;;;2.20;;
15110;SDS011;7656;51.954;7.998;2023-07-13T08:33:52;3.30;;;2.22;;
15110;SDS011;7656;51.954;7.998;2023-07-13T08:38:13;4.35;;;2.15;;
15110;SDS011;7656;51.954;7.998;2023-07-13T08:42:39;2.97;;;2.40;;
15110;SDS011;7656;51.954;7.998;2023-07-13T08:47:05;3.58;;;2.15;;
15110;SDS011;7656;51.954;7.998;2023-07-13T08:51:40;6.00;;;2.40;;
15110;SDS011;7656;51.954;7.998;2023-07-13T08:56:09;6.03;;;2.53;;
15110;SDS011;7656;51.954;7.998;2023-07-13T09:00:40;2.85;;;1.70;;
15110;SDS011;7656;51.954;7.998;2023-07-13T09:05:38;2.05;;;1.85;;
15110;SDS011;7656;51.954;7.998;2023-07-13T09:10:08;4.85;;;2.25;;
15110;SDS011;7656;51.954;7.998;2023-07-13T09:14:38;4.25;;;2.28;;
15110;SDS011;7656;51.954;7.998;2023-07-13T09:19:05;2.67;;;2.00;;
15110;SDS011;7656;51.954;7.998;2023-07-13T09:23:42;4.25;;;2.40;;
15110;SDS011;7656;51.954;7.998;2023-07-13T09:28:11;5.18;;;2.30;;
15110;SDS011;7656;51.954;7.998;2023-07-13T09:32:47;2.40;;;2.20;;
15110;SDS011;7656;51.954;7.998;2023-07-13T09:37:12;5.10;;;2.85;;
15110;SDS011;7656;51.954;7.998;2023-07-13T09:46:16;3.00;;;2.67;;
15110;SDS011;7656;51.954;7.998;2023-07-13T09:50:42;4.72;;;2.90;;
15110;SDS011;7656;51.954;7.998;2023-07-13T09:55:11;3.22;;;2.92;;
15110;SDS011;7656;51.954;7.998;2023-07-13T09:59:51;4.93;;;2.92;;
15110;SDS011;7656;51.954;7.998;2023-07-13T10:04:16;4.88;;;2.80;;
15110;SDS011;7656;51.954;7.998;2023-07-13T10:08:40;3.80;;;2.97;;
15110;SDS011;7656;51.954;7.998;2023-07-13T10:13:01;3.90;;;3.40;;
15110;SDS011;7656;51.954;7.998;2023-07-13T10:17:26;10.35;;;3.40;;
15110;SDS011;7656;51.954;7.998;2023-07-13T10:21:58;5.40;;;3.92;;
15110;SDS011;7656;51.954;7.998;2023-07-13T10:31:30;4.80;;;4.40;;
15110;SDS011;7656;51.954;7.998;2023-07-13T10:35:54;5.95;;;4.43;;
15110;SDS011;7656;51.954;7.998;2023-07-13T10:40:31;5.55;;;4.32;;
15110;SDS011;7656;51.954;7.998;2023-07-13T10:44:59;6.35;;;4.30;;
15110;SDS011;7656;51.954;7.998;2023-07-13T10:49:21;6.40;;;4.22;;
15110;SDS011;7656;51.954;7.998;2023-07-13T10:53:43;5.03;;;4.45;;
15110;SDS011;7656;51.954;7.998;2023-07-13T10:58:12;4.72;;;3.28;;
15110;SDS011;7656;51.954;7.998;2023-07-13T11:02:41;4.63;;;3.50;;
15110;SDS011;7656;51.954;7.998;2023-07-13T11:07:10;4.60;;;2.67;;
15110;SDS011;7656;51.954;7.998;2023-07-13T11:11:40;4.45;;;2.97;;
15110;SDS011;7656;51.954;7.998;2023-07-13T11:16:01;3.42;;;3.00;;
15110;SDS011;7656;51.954;7.998;2023-07-13T11:20:35;4.97;;;2.85;;
15110;SDS011;7656;51.954;7.998;2023-07-13T11:25:01;3.80;;;3.42;;
15110;SDS011;7656;51.954;7.998;2023-07-13T11:29:44;3.25;;;2.85;;
15110;SDS011;7656;51.954;7.998;2023-07-13T11:34:06;5.55;;;3.00;;
15110;SDS011;7656;51.954;7.998;2023-07-13T11:38:40;5.78;;;3.05;;
15110;SDS011;7656;51.954;7.998;2023-07-13T11:43:02;3.10;;;2.90;;
15110;SDS011;7656;51.954;7.998;2023-07-13T11:47:27;2.92;;;2.60;;
15110;SDS011;7656;51.954;7.998;2023-07-13T11:51:51;2.92;;;2.40;;
15110;SDS011;7656;51.954;7.998;2023-07-13T11:56:16;2.45;;;2.25;;
15110;SDS011;7656;51.954;7.998;2023-07-13T12:00:37;4.00;;;2.33;;
15110;SDS011;7656;51.954;7.998;2023-07-13T12:05:01;2.55;;;2.17;;
15110;SDS011;7656;51.954;7.998;2023-07-13T12:09:26;5.05;;;3.03;;
15110;SDS011;7656;51.954;7.998;2023-07-13T12:13:49;2.30;;;2.10;;
15110;SDS011;7656;51.954;7.998;2023-07-13T12:18:12;2.10;;;1.92;;
15110;SDS011;7656;51.954;7.998;2023-07-13T12:22:35;2.38;;;1.70;;
15110;SDS011;7656;51.954;7.998;2023-07-13T12:27:00;4.25;;;2.05;;
15110;SDS011;7656;51.954;7.998;2023-07-13T12:31:31;3.58;;;2.20;;
15110;SDS011;7656;51.954;7.998;2023-07-13T12:36:12;2.10;;;1.90;;
15110;SDS011;7656;51.954;7.998;2023-07-13T12:40:34;2.38;;;1.90;;
15110;SDS011;7656;51.954;7.998;2023-07-13T12:45:01;2.42;;;1.70;;
15110;SDS011;7656;51.954;7.998;2023-07-13T12:49:33;3.97;;;1.65;;
15110;SDS011;7656;51.954;7.998;2023-07-13T12:58:40;2.53;;;1.50;;
15110;SDS011;7656;51.954;7.998;2023-07-13T13:03:07;2.92;;;1.65;;
15110;SDS011;7656;51.954;7.998;2023-07-13T13:07:44;4.45;;;2.10;;
15110;SDS011;7656;51.954;7.998;2023-07-13T13:12:07;3.40;;;1.95;;
15110;SDS011;7656;51.954;7.998;2023-07-13T13:16:43;3.90;;;2.40;;
15110;SDS011;7656;51.954;7.998;2023-07-13T13:21:11;3.40;;;2.20;;
15110;SDS011;7656;51.954;7.998;2023-07-13T13:25:32;3.47;;;2.35;;
15110;SDS011;7656;51.954;7.998;2023-07-13T13:29:53;3.70;;;2.55;;
15110;SDS011;7656;51.954;7.998;2023-07-13T13:34:15;1.95;;;1.83;;
15110;SDS011;7656;51.954;7.998;2023-07-13T13:38:38;6.53;;;3.30;;
15110;SDS011;7656;51.954;7.998;2023-07-13T13:43:00;4.68;;;3.05;;
15110;SDS011;7656;51.954;7.998;2023-07-13T13:47:42;3.22;;;2.63;;
15110;SDS011;7656;51.954;7.998;2023-07-13T13:52:03;4.97;;;2.60;;
15110;SDS011;7656;51.954;7.998;2023-07-13T13:56:24;3.35;;;2.40;;
15110;SDS011;7656;51.954;7.998;2023-07-13T14:00:47;2.50;;;2.25;;
15110;SDS011;7656;51.954;7.998;2023-07-13T14:05:09;3.78;;;2.70;;
15110;SDS011;7656;51.954;7.998;2023-07-13T14:09:33;5.68;;;2.97;;
15110;SDS011;7656;51.954;7.998;2023-07-13T14:13:55;2.67;;;2.47;;
15110;SDS011;7656;51.954;7.998;2023-07-13T14:18:19;3.47;;;2.53;;
15110;SDS011;7656;51.954;7.998;2023-07-13T14:22:40;5.18;;;2.58;;
15110;SDS011;7656;51.954;7.998;2023-07-13T14:27:04;5.28;;;2.50;;
15110;SDS011;7656;51.954;7.998;2023-07-13T14:31:27;4.20;;;2.40;;
15110;SDS011;7656;51.954;7.998;2023-07-13T14:35:49;4.07;;;2.00;;
15110;SDS011;7656;51.954;7.998;2023-07-13T14:40:18;2.20;;;2.00;;
15110;SDS011;7656;51.954;7.998;2023-07-13T14:44:50;2.17;;;2.07;;
15110;SDS011;7656;51.954;7.998;2023-07-13T14:53:51;4.87;;;2.00;;
15110;SDS011;7656;51.954;7.998;2023-07-13T14:58:12;1.80;;;1.70;;
15110;SDS011;7656;51.954;7.998;2023-07-13T15:02:34;2.70;;;2.00;;
15110;SDS011;7656;51.954;7.998;2023-07-13T15:07:01;1.70;;;1.60;;
15110;SDS011;7656;51.954;7.998;2023-07-13T15:11:23;2.90;;;1.83;;
15110;SDS011;7656;51.954;7.998;2023-07-13T15:15:48;5.13;;;1.70;;
15110;SDS011;7656;51.954;7.998;2023-07-13T15:20:18;2.10;;;1.90;;
15110;SDS011;7656;51.954;7.998;2023-07-13T15:24:47;2.27;;;2.07;;
15110;SDS011;7656;51.954;7.998;2023-07-13T15:29:08;3.67;;;2.10;;
15110;SDS011;7656;51.954;7.998;2023-07-13T15:33:29;2.88;;;1.90;;
15110;SDS011;7656;51.954;7.998;2023-07-13T15:37:51;1.90;;;1.80;;
15110;SDS011;7656;51.954;7.998;2023-07-13T15:42:16;1.95;;;1.58;;
15110;SDS011;7656;51.954;7.998;2023-07-13T15:46:38;2.30;;;1.67;;
15110;SDS011;7656;51.954;7.998;2023-07-13T15:51:00;3.15;;;1.83;;
15110;SDS011;7656;51.954;7.998;2023-07-13T15:55:24;1.70;;;1.60;;
15110;SDS011;7656;51.954;7.998;2023-07-13T15:59:45;1.80;;;1.70;;
15110;SDS011;7656;51.954;7.998;2023-07-13T16:04:06;4.78;;;1.90;;
15110;SDS011;7656;51.954;7.998;2023-07-13T16:08:30;2.25;;;1.85;;
15110;SDS011;7656;51.954;7.998;2023-07-13T16:12:52;4.20;;;2.20;;
15110;SDS011;7656;51.954;7.998;2023-07-13T16:17:15;2.70;;;2.20;;
15110;SDS011;7656;51.954;7.998;2023-07-13T16:21:46;3.55;;;2.45;;
15110;SDS011;7656;51.954;7.998;2023-07-13T16:26:15;2.45;;;2.08;;
15110;SDS011;7656;51.954;7.998;2023-07-13T16:31:00;3.35;;;1.95;;
15110;SDS011;7656;51.954;7.998;2023-07-13T16:35:23;2.78;;;1.98;;
15110;SDS011;7656;51.954;7.998;2023-07-13T16:39:51;1.88;;;1.70;;
15110;SDS011;7656;51.954;7.998;2023-07-13T16:44:16;1.70;;;1.60;;
15110;SDS011;7656;51.954;7.998;2023-07-13T16:48:41;2.40;;;1.90;;
15110;SDS011;7656;51.954;7.998;2023-07-13T16:53:02;2.72;;;2.20;;
15110;SDS011;7656;51.954;7.998;2023-07-13T16:57:31;2.28;;;2.00;;
15110;SDS011;7656;51.954;7.998;2023-07-13T17:01:53;2.42;;;1.70;;
15110;SDS011;7656;51.954;7.998;2023-07-13T17:06:20;2.20;;;2.10;;
15110;SDS011;7656;51.954;7.998;2023-07-13T17:10:44;2.25;;;1.80;;
15110;SDS011;7656;51.954;7.998;2023-07-13T17:15:07;7.20;;;2.50;;
15110;SDS011;7656;51.954;7.998;2023-07-13T17:19:30;2.83;;;2.10;;
15110;SDS011;7656;51.954;7.998;2023-07-13T17:23:53;2.65;;;2.30;;
15110;SDS011;7656;51.954;7.998;2023-07-13T17:28:14;3.75;;;2.50;;
15110;SDS011;7656;51.954;7.998;2023-07-13T17:32:36;4.38;;;2.60;;
15110;SDS011;7656;51.954;7.998;2023-07-13T17:36:57;3.63;;;2.63;;
15110;SDS011;7656;51.954;7.998;2023-07-13T17:41:19;2.47;;;2.28;;
15110;SDS011;7656;51.954;7.998;2023-07-13T17:45:42;2.97;;;2.60;;
15110;SDS011;7656;51.954;7.998;2023-07-13T17:50:12;4.63;;;3.00;;
15110;SDS011;7656;51.954;7.998;2023-07-13T17:54:35;4.10;;;2.50;;
15110;SDS011;7656;51.954;7.998;2023-07-13T17:58:57;4.70;;;2.67;;
15110;SDS011;7656;51.954;7.998;2023-07-13T18:03:20;2.92;;;2.38;;
15110;SDS011;7656;51.954;7.998;2023-07-13T18:07:49;3.60;;;2.95;;
15110;SDS011;7656;51.954;7.998;2023-07-13T18:12:10;2.47;;;2.28;;
15110;SDS011;7656;51.954;7.998;2023-07-13T18:16:31;3.60;;;2.40;;
15110;SDS011;7656;51.954;7.998;2023-07-13T18:20:53;5.85;;;2.70;;
15110;SDS011;7656;51.954;7.998;2023-07-13T18:25:15;5.82;;;2.78;;
15110;SDS011;7656;51.954;7.998;2023-07-13T18:29:40;3.55;;;2.83;;
15110;SDS011;7656;51.954;7.998;2023-07-13T18:34:03;3.67;;;2.57;;
15110;SDS011;7656;51.954;7.998;2023-07-13T18:38:25;2.90;;;2.70;;
15110;SDS011;7656;51.954;7.998;2023-07-13T18:42:52;5.77;;;3.20;;
15110;SDS011;7656;51.954;7.998;2023-07-13T18:47:18;4.43;;;4.00;;
15110;SDS011;7656;51.954;7.998;2023-07-13T18:51:43;3.58;;;3.17;;
15110;SDS011;7656;51.954;7.998;2023-07-13T18:56:04;6.33;;;3.63;;
15110;SDS011;7656;51.954;7.998;2023-07-13T19:00:31;3.83;;;3.15;;
15110;SDS011;7656;51.954;7.998;2023-07-13T19:04:53;5.83;;;3.97;;
15110;SDS011;7656;51.954;7.998;2023-07-13T19:09:14;4.70;;;3.60;;
15110;SDS011;7656;51.954;7.998;2023-07-13T19:13:35;4.83;;;3.63;;
15110;SDS011;7656;51.954;7.998;2023-07-13T19:17:58;5.40;;;3.53;;
15110;SDS011;7656;51.954;7.998;2023-07-13T19:22:22;4.67;;;3.37;;
15110;SDS011;7656;51.954;7.998;2023-07-13T19:26:44;4.60;;;3.90;;
15110;SDS011;7656;51.954;7.998;2023-07-13T19:35:41;5.73;;;4.03;;
15110;SDS011;7656;51.954;7.998;2023-07-13T19:40:04;4.63;;;3.90;;
15110;SDS011;7656;51.954;7.998;2023-07-13T19:44:38;4.03;;;3.63;;
15110;SDS011;7656;51.954;7.998;2023-07-13T19:49:00;5.20;;;3.43;;
15110;SDS011;7656;51.954;7.998;2023-07-13T19:53:23;4.80;;;3.37;;
15110;SDS011;7656;51.954;7.998;2023-07-13T19:57:44;4.10;;;3.70;;
15110;SDS011;7656;51.954;7.998;2023-07-13T20:02:06;5.03;;;3.87;;
15110;SDS011;7656;51.954;7.998;2023-07-13T20:06:28;4.53;;;3.87;;
15110;SDS011;7656;51.954;7.998;2023-07-13T20:10:57;4.67;;;4.27;;
15110;SDS011;7656;51.954;7.998;2023-07-13T20:15:19;7.47;;;5.90;;
15110;SDS011;7656;51.954;7.998;2023-07-13T20:19:43;4.93;;;4.23;;
15110;SDS011;7656;51.954;7.998;2023-07-13T20:24:12;7.67;;;3.70;;
15110;SDS011;7656;51.954;7.998;2023-07-13T20:28:39;4.53;;;4.13;;
15110;SDS011;7656;51.954;7.998;2023-07-13T20:33:00;4.77;;;3.07;;
15110;SDS011;7656;51.954;7.998;2023-07-13T20:37:27;5.23;;;3.87;;
15110;SDS011;7656;51.954;7.998;2023-07-13T20:41:52;4.37;;;3.73;;
15110;SDS011;7656;51.954;7.998;2023-07-13T20:46:14;6.93;;;3.50;;
15110;SDS011;7656;51.954;7.998;2023-07-13T20:50:38;4.50;;;3.47;;
15110;SDS011;7656;51.954;7.998;2023-07-13T20:54:59;4.47;;;3.80;;
15110;SDS011;7656;51.954;7.998;2023-07-13T20:59:22;4.20;;;3.73;;
15110;SDS011;7656;51.954;7.998;2023-07-13T21:03:43;3.90;;;3.60;;
15110;SDS011;7656;51.954;7.998;2023-07-13T21:08:15;3.87;;;3.47;;
15110;SDS011;7656;51.954;7.998;2023-07-13T21:12:39;4.00;;;3.60;;
15110;SDS011;7656;51.954;7.998;2023-07-13T21:17:00;4.00;;;3.60;;
15110;SDS011;7656;51.954;7.998;2023-07-13T21:21:22;4.50;;;3.40;;
15110;SDS011;7656;51.954;7.998;2023-07-13T21:25:45;4.83;;;3.50;;
15110;SDS011;7656;51.954;7.998;2023-07-13T21:30:06;5.40;;;3.70;;
15110;SDS011;7656;51.954;7.998;2023-07-13T21:34:32;4.10;;;3.70;;
15110;SDS011;7656;51.954;7.998;2023-07-13T21:38:55;4.87;;;3.43;;
15110;SDS011;7656;51.954;7.998;2023-07-13T21:43:21;5.50;;;4.00;;
15110;SDS011;7656;51.954;7.998;2023-07-13T21:47:43;5.30;;;4.30;;
15110;SDS011;7656;51.954;7.998;2023-07-13T21:52:10;8.77;;;4.70;;
15110;SDS011;7656;51.954;7.998;2023-07-13T21:56:36;4.50;;;4.00;;
15110;SDS011;7656;51.954;7.998;2023-07-13T22:00:57;4.57;;;4.17;;
15110;SDS011;7656;51.954;7.998;2023-07-13T22:05:19;5.40;;;4.10;;
15110;SDS011;7656;51.954;7.998;2023-07-13T22:09:41;8.13;;;5.53;;
15110;SDS011;7656;51.954;7.998;2023-07-13T22:14:02;5.57;;;4.60;;
15110;SDS011;7656;51.954;7.998;2023-07-13T22:18:23;9.23;;;4.50;;
15110;SDS011;7656;51.954;7.998;2023-07-13T22:22:47;7.50;;;4.93;;
15110;SDS011;7656;51.954;7.998;2023-07-13T22:27:09;5.50;;;4.50;;
15110;SDS011;7656;51.954;7.998;2023-07-13T22:31:31;6.77;;;4.57;;
15110;SDS011;7656;51.954;7.998;2023-07-13T22:35:52;10.47;;;5.47;;
15110;SDS011;7656;51.954;7.998;2023-07-13T22:40:14;7.13;;;4.80;;
15110;SDS011;7656;51.954;7.998;2023-07-13T22:44:36;5.57;;;5.07;;
15110;SDS011;7656;51.954;7.998;2023-07-13T22:48:58;5.87;;;4.83;;
15110;SDS011;7656;51.954;7.998;2023-07-13T22:53:35;5.83;;;5.10;;
15110;SDS011;7656;51.954;7.998;2023-07-13T22:57:56;9.03;;;5.37;;
15110;SDS011;7656;51.954;7.998;2023-07-13T23:02:17;5.50;;;4.50;;
15110;SDS011;7656;51.954;7.998;2023-07-13T23:06:38;7.20;;;4.83;;
15110;SDS011;7656;51.954;7.998;2023-07-13T23:10:59;5.67;;;4.53;;
15110;SDS011;7656;51.954;7.998;2023-07-13T23:15:23;5.30;;;4.80;;
15110;SDS011;7656;51.954;7.998;2023-07-13T23:19:44;6.00;;;4.83;;
15110;SDS011;7656;51.954;7.998;2023-07-13T23:24:09;8.53;;;4.67;;
15110;SDS011;7656;51.954;7.998;2023-07-13T23:28:33;6.07;;;4.70;;
15110;SDS011;7656;51.954;7.998;2023-07-13T23:32:58;8.23;;;5.57;;
15110;SDS011;7656;51.954;7.998;2023-07-13T23:37:23;7.33;;;5.50;;
15110;SDS011;7656;51.954;7.998;2023-07-13T23:41:44;6.80;;;4.73;;
15110;SDS011;7656;51.954;7.998;2023-07-13T23:46:55;8.43;;;5.50;;
15110;SDS011;7656;51.954;7.998;2023-07-13T23:51:07;7.10;;;4.90;;
15110;SDS011;7656;51.954;7.998;2023-07-13T23:55:33;8.77;;;5.10;;
15110;SDS011;7656;51.954;7.998;2023-07-13T23:59:54;6.43;;;5.07;;
